createdAt,value
2022-10-10T00:12:04.653Z,966.9
2022-10-10T00:27:06.492Z,966.84
2022-10-10T00:42:08.312Z,966.69
2022-10-10T00:57:10.138Z,966.63
2022-10-10T01:12:11.982Z,966.65
2022-10-10T01:27:13.799Z,966.85
2022-10-10T01:42:15.659Z,966.95
2022-10-10T01:57:17.501Z,967.13
2022-10-10T02:12:19.365Z,967.08
2022-10-10T02:27:21.206Z,967.21
2022-10-10T02:42:23.047Z,967.32
2022-10-10T02:57:24.919Z,967.37
2022-10-10T03:12:26.760Z,967.45
2022-10-10T03:27:28.593Z,967.53
2022-10-10T03:42:30.453Z,967.49
2022-10-10T03:57:32.287Z,967.59
2022-10-10T04:12:34.144Z,967.74
2022-10-10T04:27:36.016Z,967.85
2022-10-10T04:42:37.847Z,967.8
2022-10-10T04:57:39.656Z,967.76
2022-10-10T05:12:41.497Z,967.86
2022-10-10T05:27:43.354Z,967.9
2022-10-10T05:42:45.185Z,967.86
2022-10-10T05:57:47.031Z,967.88
2022-10-10T06:12:49.280Z,967.69
2022-10-10T06:27:51.390Z,967.69
2022-10-10T06:42:53.596Z,967.59
2022-10-10T06:57:55.692Z,967.54
2022-10-10T07:12:57.680Z,967.47
2022-10-10T07:27:59.673Z,967.44
2022-10-10T07:43:01.527Z,967.41
2022-10-10T07:58:03.362Z,967.45
2022-10-10T08:13:05.211Z,967.28
2022-10-10T08:28:07.122Z,967.15
2022-10-10T08:43:09.049Z,967.06
2022-10-10T08:58:10.898Z,967.1
2022-10-10T09:13:12.746Z,967.1
2022-10-10T09:28:14.611Z,967.08
2022-10-10T09:43:16.509Z,967.02
2022-10-10T09:58:18.366Z,966.98
2022-10-10T10:13:20.215Z,966.94
2022-10-10T10:28:22.155Z,966.74
2022-10-10T10:43:24.026Z,966.65
2022-10-10T10:59:16.694Z,966.61
2022-10-10T11:14:37.999Z,966.49
2022-10-10T11:29:39.862Z,966.38
2022-10-10T11:44:41.699Z,966.38
2022-10-10T11:59:43.569Z,966.17
2022-10-10T12:14:45.394Z,966.17
2022-10-10T12:29:50.876Z,966.13
2022-10-10T12:44:53.240Z,966.04
2022-10-10T12:59:58.669Z,965.88
2022-10-10T13:15:03.054Z,965.85
2022-10-10T13:30:04.904Z,965.7
2022-10-10T13:45:06.739Z,965.53
2022-10-10T14:00:08.551Z,965.39
2022-10-10T14:15:10.384Z,965.27
2022-10-10T14:30:12.243Z,965.17
2022-10-10T14:45:14.087Z,964.85
2022-10-10T15:00:15.906Z,964.84
2022-10-10T15:15:17.772Z,964.72
2022-10-10T15:30:19.651Z,964.78
2022-10-10T15:45:50.955Z,964.56
2022-10-10T16:00:56.663Z,964.18
2022-10-10T16:15:58.520Z,963.89
2022-10-10T16:31:00.872Z,963.49
2022-10-10T16:46:02.966Z,963.31
2022-10-10T17:01:06.258Z,962.99
2022-10-10T17:16:40.493Z,962.81
2022-10-10T17:31:55.150Z,962.26
2022-10-10T17:46:57.005Z,961.96
2022-10-10T18:01:58.838Z,961.38
2022-10-10T18:17:00.686Z,960.91
2022-10-10T18:32:02.544Z,961.01
2022-10-10T18:47:04.381Z,960.29
2022-10-10T19:02:06.188Z,959.8
2022-10-10T19:17:08.045Z,959.71
2022-10-10T19:32:09.906Z,959.17
2022-10-10T19:47:11.726Z,959
2022-10-10T20:02:13.555Z,958.41
2022-10-10T20:17:15.386Z,957.87
2022-10-10T20:32:17.220Z,957.48
2022-10-10T20:47:19.055Z,957.28
2022-10-10T21:02:20.900Z,956.85
2022-10-10T21:17:22.735Z,956.66
2022-10-10T21:32:24.602Z,956.26
2022-10-10T21:47:26.446Z,955.75
2022-10-10T22:02:28.355Z,955.54
2022-10-10T22:17:30.238Z,955.29
2022-10-10T22:32:32.092Z,955.06
2022-10-10T22:47:33.911Z,954.7
2022-10-10T23:02:35.766Z,954.31
2022-10-10T23:17:37.621Z,954.18
2022-10-10T23:32:39.445Z,953.78
2022-10-10T23:47:41.293Z,953.54
